createdAt,value
2018-07-20T00:00:53.864Z,0.00
2018-07-20T00:01:53.884Z,0.00
2018-07-20T00:02:53.827Z,0.00
2018-07-20T00:03:53.803Z,0.00
2018-07-20T00:04:53.783Z,0.00
2018-07-20T00:05:53.766Z,0.00
2018-07-20T00:06:53.746Z,0.00
2018-07-20T00:07:53.723Z,0.00
2018-07-20T00:08:53.702Z,0.00
2018-07-20T00:09:53.684Z,0.00
2018-07-20T00:10:53.642Z,0.00
2018-07-20T00:11:53.679Z,0.00
2018-07-20T00:12:53.625Z,0.00
2018-07-20T00:13:53.582Z,0.00
2018-07-20T00:14:53.577Z,0.00
2018-07-20T00:15:53.561Z,0.00
2018-07-20T00:16:53.543Z,0.00
2018-07-20T00:17:53.500Z,0.00
2018-07-20T00:18:53.500Z,0.00
2018-07-20T00:19:53.475Z,0.00
2018-07-20T00:20:53.457Z,0.00
2018-07-20T00:21:53.434Z,0.00
2018-07-20T00:22:53.413Z,0.00
2018-07-20T00:23:53.387Z,0.00
2018-07-20T00:24:53.373Z,0.00
2018-07-20T00:25:53.349Z,0.00
2018-07-20T00:26:53.329Z,0.00
2018-07-20T00:27:53.321Z,0.00
2018-07-20T00:28:53.290Z,0.00
2018-07-20T00:29:53.264Z,0.00
2018-07-20T00:30:53.231Z,0.00
2018-07-20T00:31:53.224Z,0.00
2018-07-20T00:32:53.201Z,0.00
2018-07-20T00:33:53.185Z,0.00
2018-07-20T00:34:53.164Z,0.00
2018-07-20T00:35:53.128Z,0.00
2018-07-20T00:36:53.124Z,0.00
2018-07-20T00:37:53.105Z,0.00
2018-07-20T00:38:53.078Z,0.00
2018-07-20T00:39:53.060Z,0.00
2018-07-20T00:40:53.023Z,0.00
2018-07-20T00:41:53.016Z,0.00
2018-07-20T00:42:52.995Z,0.00
2018-07-20T00:43:52.975Z,0.00
2018-07-20T00:44:52.950Z,0.00
2018-07-20T00:45:52.939Z,0.00
2018-07-20T00:46:52.912Z,0.00
2018-07-20T00:47:52.891Z,0.00
2018-07-20T00:48:52.872Z,0.00
2018-07-20T00:49:52.853Z,0.00
2018-07-20T00:50:52.833Z,0.00
2018-07-20T00:51:52.809Z,0.00
2018-07-20T00:52:52.786Z,0.00
2018-07-20T00:53:52.745Z,0.00
2018-07-20T00:54:52.747Z,0.00
2018-07-20T00:55:52.722Z,0.00
2018-07-20T00:56:52.686Z,0.00
2018-07-20T00:57:52.687Z,0.00
2018-07-20T00:58:52.641Z,0.00
2018-07-20T00:59:52.641Z,0.00
2018-07-20T01:00:52.625Z,0.00
2018-07-20T01:01:52.593Z,0.00
2018-07-20T01:02:52.582Z,0.00
2018-07-20T01:03:52.559Z,0.00
2018-07-20T01:04:52.539Z,0.00
2018-07-20T01:05:52.519Z,0.00
2018-07-20T01:06:52.475Z,0.00
2018-07-20T01:07:52.474Z,0.00
2018-07-20T01:08:52.455Z,0.00
2018-07-20T01:09:52.429Z,0.00
2018-07-20T01:10:52.411Z,0.00
2018-07-20T01:11:52.388Z,0.00
2018-07-20T01:12:52.367Z,0.00
2018-07-20T01:13:52.350Z,0.00
2018-07-20T01:14:52.321Z,0.00
2018-07-20T01:15:52.304Z,0.00
2018-07-20T01:16:52.283Z,0.00
2018-07-20T01:17:52.264Z,0.00
2018-07-20T01:18:52.243Z,0.00
2018-07-20T01:19:52.219Z,0.00
2018-07-20T01:20:52.202Z,0.00
2018-07-20T01:21:52.182Z,0.00
2018-07-20T01:22:52.156Z,0.00
2018-07-20T01:23:52.137Z,0.00
2018-07-20T01:24:52.118Z,0.00
2018-07-20T01:25:52.100Z,0.00
2018-07-20T01:26:52.074Z,0.00
2018-07-20T01:27:52.032Z,0.00
2018-07-20T01:28:52.030Z,0.00
2018-07-20T01:29:52.016Z,0.00
2018-07-20T01:30:51.991Z,0.00
2018-07-20T01:31:51.954Z,0.00
2018-07-20T01:32:51.933Z,0.00
2018-07-20T01:33:51.921Z,0.00
2018-07-20T01:34:51.904Z,0.00
2018-07-20T01:35:51.879Z,0.00
2018-07-20T01:36:51.859Z,0.00
2018-07-20T01:37:51.846Z,0.00
2018-07-20T01:38:51.816Z,0.00
2018-07-20T01:39:51.777Z,0.00
2018-07-20T01:40:51.776Z,0.00
2018-07-20T01:41:51.761Z,0.00
2018-07-20T01:42:51.718Z,0.00
2018-07-20T01:43:51.719Z,0.00
2018-07-20T01:44:51.692Z,0.00
2018-07-20T01:45:51.676Z,0.00
2018-07-20T01:46:51.632Z,0.00
2018-07-20T01:47:51.634Z,0.00
2018-07-20T01:48:51.617Z,0.00
2018-07-20T01:49:51.589Z,0.00
2018-07-20T01:50:51.564Z,0.00
2018-07-20T01:51:51.541Z,0.00
2018-07-20T01:52:51.522Z,0.00
2018-07-20T01:53:51.492Z,0.00
2018-07-20T01:54:51.485Z,0.00
2018-07-20T01:55:51.440Z,0.00
2018-07-20T01:56:51.436Z,0.00
2018-07-20T01:57:51.427Z,0.00
2018-07-20T01:58:51.396Z,0.00
2018-07-20T01:59:51.384Z,0.00
2018-07-20T02:00:51.355Z,0.00
2018-07-20T02:01:51.337Z,0.00
2018-07-20T02:02:51.314Z,0.00
2018-07-20T02:03:51.285Z,0.00
2018-07-20T02:04:51.272Z,0.00
2018-07-20T02:05:51.249Z,0.00
2018-07-20T02:06:51.230Z,0.00
2018-07-20T02:07:51.206Z,0.00
2018-07-20T02:08:51.188Z,0.00
2018-07-20T02:09:51.170Z,0.00
2018-07-20T02:10:51.145Z,0.00
2018-07-20T02:11:51.119Z,0.00
2018-07-20T02:12:51.102Z,0.00
2018-07-20T02:13:51.077Z,0.00
2018-07-20T02:14:51.040Z,0.00
2018-07-20T02:15:51.035Z,0.00
2018-07-20T02:16:51.012Z,0.00
2018-07-20T02:17:50.996Z,0.00
2018-07-20T02:18:50.972Z,0.00
2018-07-20T02:19:50.950Z,0.00
2018-07-20T02:20:50.931Z,0.00
2018-07-20T02:21:50.906Z,0.00
2018-07-20T02:22:50.889Z,0.00
2018-07-20T02:23:50.866Z,0.00
2018-07-20T02:24:50.826Z,0.00
2018-07-20T02:25:50.819Z,0.00
2018-07-20T02:26:50.801Z,0.00
2018-07-20T02:27:50.791Z,0.00
2018-07-20T02:28:50.761Z,0.00
2018-07-20T02:29:50.737Z,0.00
2018-07-20T02:30:50.716Z,0.00
2018-07-20T02:31:50.699Z,0.00
2018-07-20T02:32:50.674Z,0.00
2018-07-20T02:33:50.655Z,0.00
2018-07-20T02:34:50.627Z,0.00
2018-07-20T02:35:50.609Z,0.00
2018-07-20T02:36:50.591Z,0.00
2018-07-20T02:37:50.546Z,0.00
2018-07-20T02:38:50.543Z,0.00
2018-07-20T02:39:50.523Z,0.00
2018-07-20T02:40:50.496Z,0.00
2018-07-20T02:41:50.464Z,0.00
2018-07-20T02:42:50.455Z,0.00
2018-07-20T02:43:50.439Z,0.00
2018-07-20T02:44:50.406Z,0.00
2018-07-20T02:45:50.397Z,0.00
2018-07-20T02:46:50.355Z,0.00
2018-07-20T02:47:50.353Z,0.00
2018-07-20T02:48:50.337Z,0.00
2018-07-20T02:49:50.294Z,0.00
2018-07-20T02:50:50.288Z,0.00
2018-07-20T02:51:50.263Z,0.00
2018-07-20T02:52:50.246Z,0.00
2018-07-20T02:53:50.219Z,0.00
2018-07-20T02:54:50.203Z,0.00
2018-07-20T02:55:50.180Z,0.00
2018-07-20T02:56:50.157Z,0.00
2018-07-20T02:57:50.116Z,0.00
2018-07-20T02:58:50.111Z,0.00
2018-07-20T02:59:50.090Z,0.00
2018-07-20T03:00:50.078Z,0.00
2018-07-20T03:01:50.050Z,0.00
2018-07-20T03:02:50.029Z,0.00
2018-07-20T03:03:50.011Z,0.00
2018-07-20T03:04:49.988Z,0.00
2018-07-20T03:05:49.967Z,0.00
2018-07-20T03:06:49.945Z,0.00
2018-07-20T03:07:49.901Z,0.00
2018-07-20T03:08:49.900Z,0.00
2018-07-20T03:09:49.880Z,0.00
2018-07-20T03:10:49.854Z,0.00
2018-07-20T03:11:49.819Z,0.00
2018-07-20T03:12:49.813Z,0.00
2018-07-20T03:13:49.770Z,0.00
2018-07-20T03:14:49.779Z,0.00
2018-07-20T03:15:49.751Z,0.00
2018-07-20T03:16:49.733Z,0.00
2018-07-20T03:17:49.706Z,0.00
2018-07-20T03:18:49.680Z,0.00
2018-07-20T03:19:49.670Z,0.00
2018-07-20T03:20:49.640Z,0.00
2018-07-20T03:21:49.623Z,0.00
2018-07-20T03:22:49.580Z,0.00
2018-07-20T03:23:49.583Z,0.00
2018-07-20T03:24:49.538Z,0.00
2018-07-20T03:25:49.543Z,0.00
2018-07-20T03:26:49.513Z,0.00
2018-07-20T03:27:49.495Z,0.00
2018-07-20T03:28:49.448Z,0.00
2018-07-20T03:29:49.428Z,0.00
2018-07-20T03:30:49.427Z,0.00
2018-07-20T03:31:49.410Z,0.00
2018-07-20T03:32:49.441Z,0.00
2018-07-20T03:33:49.342Z,0.00
2018-07-20T03:34:49.345Z,0.00
2018-07-20T03:35:49.307Z,0.00
2018-07-20T03:36:49.299Z,0.00
2018-07-20T03:37:49.255Z,0.00
2018-07-20T03:38:49.251Z,0.00
2018-07-20T03:39:49.231Z,0.00
2018-07-20T03:40:49.208Z,0.00
2018-07-20T03:41:49.189Z,0.00
2018-07-20T03:42:49.169Z,0.00
2018-07-20T03:43:49.146Z,0.00
2018-07-20T03:44:49.125Z,0.00
2018-07-20T03:45:49.098Z,0.00
2018-07-20T03:46:49.079Z,0.00
2018-07-20T03:47:49.059Z,0.00
2018-07-20T03:48:49.035Z,0.00
2018-07-20T03:49:49.014Z,0.00
2018-07-20T03:50:48.996Z,0.00
2018-07-20T03:51:48.972Z,0.00
2018-07-20T03:52:48.946Z,0.00
2018-07-20T03:53:48.925Z,0.00
2018-07-20T03:54:48.901Z,0.00
2018-07-20T03:55:48.890Z,0.00
2018-07-20T03:56:48.861Z,0.00
2018-07-20T03:57:48.818Z,0.00
2018-07-20T03:58:48.816Z,0.00
2018-07-20T03:59:48.793Z,0.00
2018-07-20T04:00:48.775Z,0.00
2018-07-20T04:01:48.758Z,0.00
2018-07-20T04:02:48.732Z,0.00
2018-07-20T04:03:48.707Z,0.00
2018-07-20T04:04:48.687Z,0.00
2018-07-20T04:05:48.666Z,0.00
2018-07-20T04:06:48.640Z,0.00
2018-07-20T04:07:48.616Z,0.00
2018-07-20T04:08:48.600Z,0.00
2018-07-20T04:09:48.565Z,0.00
2018-07-20T04:10:48.554Z,0.00
2018-07-20T04:11:48.531Z,0.00
2018-07-20T04:12:48.492Z,0.00
2018-07-20T04:13:48.470Z,0.00
2018-07-20T04:14:48.466Z,0.00
2018-07-20T04:15:48.444Z,0.00
2018-07-20T04:16:48.408Z,0.00
2018-07-20T04:17:48.405Z,0.00
2018-07-20T04:18:48.358Z,0.00
2018-07-20T04:19:48.333Z,0.00
2018-07-20T04:20:48.784Z,0.00
2018-07-20T04:21:48.313Z,0.00
2018-07-20T04:22:48.287Z,0.00
2018-07-20T04:23:49.316Z,0.00
2018-07-20T04:24:48.231Z,0.00
2018-07-20T04:25:48.221Z,0.00
2018-07-20T04:26:48.181Z,0.00
2018-07-20T04:27:48.183Z,0.00
2018-07-20T04:28:48.169Z,0.00
2018-07-20T04:29:48.133Z,0.00
2018-07-20T04:30:48.096Z,0.00
2018-07-20T04:31:48.090Z,0.00
2018-07-20T04:32:48.081Z,0.00
2018-07-20T04:33:48.057Z,0.00
2018-07-20T04:34:48.030Z,0.00
2018-07-20T04:35:48.000Z,0.00
2018-07-20T04:36:47.983Z,0.00
2018-07-20T04:37:47.942Z,0.00
2018-07-20T04:38:47.941Z,0.00
2018-07-20T04:39:47.919Z,0.00
2018-07-20T04:40:47.894Z,0.00
2018-07-20T04:41:47.873Z,0.00
2018-07-20T04:42:47.846Z,0.00
2018-07-20T04:43:47.841Z,0.00
2018-07-20T04:44:47.807Z,0.00
2018-07-20T04:45:47.786Z,0.00
2018-07-20T04:46:47.763Z,0.00
2018-07-20T04:47:47.719Z,0.00
2018-07-20T04:48:47.722Z,0.00
2018-07-20T04:49:47.678Z,0.00
2018-07-20T04:50:47.670Z,0.00
2018-07-20T04:51:47.656Z,0.00
2018-07-20T04:52:47.633Z,0.00
2018-07-20T04:53:47.607Z,0.00
2018-07-20T04:54:47.591Z,0.00
2018-07-20T04:55:47.562Z,0.00
2018-07-20T04:56:47.524Z,0.00
2018-07-20T04:57:47.516Z,0.00
2018-07-20T04:58:47.536Z,0.00
2018-07-20T04:59:47.474Z,0.00
2018-07-20T05:00:47.454Z,0.00
2018-07-20T05:01:47.433Z,0.00
2018-07-20T05:02:47.412Z,0.00
2018-07-20T05:03:47.419Z,0.00
2018-07-20T05:04:47.370Z,0.00
2018-07-20T05:05:47.377Z,0.00
2018-07-20T05:06:47.318Z,0.00
2018-07-20T05:07:47.300Z,0.00
2018-07-20T05:08:47.281Z,0.00
2018-07-20T05:09:47.232Z,0.00
2018-07-20T05:10:47.233Z,0.00
2018-07-20T05:11:47.213Z,0.00
2018-07-20T05:12:47.190Z,0.00
2018-07-20T05:13:47.174Z,0.00
2018-07-20T05:14:47.147Z,0.00
2018-07-20T05:15:47.102Z,0.00
2018-07-20T05:16:47.104Z,0.00
2018-07-20T05:17:47.090Z,0.00
2018-07-20T05:18:47.062Z,0.00
2018-07-20T05:19:47.040Z,0.00
2018-07-20T05:20:47.011Z,0.00
2018-07-20T05:21:46.991Z,0.00
2018-07-20T05:22:46.962Z,0.00
2018-07-20T05:23:46.945Z,0.00
2018-07-20T05:24:46.909Z,0.00
2018-07-20T05:25:46.877Z,0.00
2018-07-20T05:26:46.878Z,0.00
2018-07-20T05:27:46.860Z,0.00
2018-07-20T05:28:46.838Z,0.00
2018-07-20T05:29:46.814Z,0.00
2018-07-20T05:30:46.787Z,0.00
2018-07-20T05:31:46.772Z,0.00
2018-07-20T05:32:46.749Z,0.00
2018-07-20T05:33:46.704Z,0.00
2018-07-20T05:34:46.709Z,0.00
2018-07-20T05:35:46.680Z,0.00
2018-07-20T05:36:46.654Z,0.00
2018-07-20T05:37:46.637Z,0.00
2018-07-20T05:38:46.618Z,0.00
2018-07-20T05:39:46.595Z,0.00
2018-07-20T05:40:46.547Z,0.00
2018-07-20T05:41:46.550Z,0.00
2018-07-20T05:42:46.504Z,0.00
2018-07-20T05:43:46.502Z,0.00
2018-07-20T05:44:46.480Z,0.00
2018-07-20T05:45:46.465Z,0.00
2018-07-20T05:46:46.435Z,0.00
2018-07-20T05:47:46.410Z,0.00
2018-07-20T05:48:46.392Z,0.00
2018-07-20T05:49:46.370Z,0.00
2018-07-20T05:50:46.351Z,0.00
2018-07-20T05:51:46.333Z,0.00
2018-07-20T05:52:46.305Z,0.00
2018-07-20T05:53:46.284Z,0.00
2018-07-20T05:54:46.262Z,0.00
2018-07-20T05:55:46.237Z,0.00
2018-07-20T05:56:46.210Z,0.00
2018-07-20T05:57:46.196Z,0.00
2018-07-20T05:58:46.153Z,0.00
2018-07-20T05:59:46.153Z,0.00
2018-07-20T06:00:46.128Z,0.00
2018-07-20T06:01:46.105Z,0.00
2018-07-20T06:02:46.079Z,0.00
2018-07-20T06:03:46.059Z,0.00
2018-07-20T06:04:46.037Z,0.00
2018-07-20T06:05:46.013Z,0.00
2018-07-20T06:06:45.989Z,0.00
2018-07-20T06:07:45.948Z,0.00
2018-07-20T06:08:45.944Z,0.00
2018-07-20T06:09:45.922Z,0.00
2018-07-20T06:10:45.900Z,0.00
2018-07-20T06:11:45.862Z,0.00
2018-07-20T06:12:45.836Z,0.00
2018-07-20T06:13:45.827Z,0.00
2018-07-20T06:14:45.806Z,0.00
2018-07-20T06:15:45.776Z,0.00
2018-07-20T06:16:45.762Z,0.00
2018-07-20T06:17:45.744Z,0.00
2018-07-20T06:18:45.771Z,0.00
2018-07-20T06:19:45.694Z,0.00
2018-07-20T06:20:45.673Z,0.00
2018-07-20T06:21:45.633Z,0.00
2018-07-20T06:22:45.628Z,0.00
2018-07-20T06:23:45.628Z,0.00
2018-07-20T06:24:45.565Z,0.00
2018-07-20T06:25:45.549Z,0.00
2018-07-20T06:26:45.534Z,0.00
2018-07-20T06:27:45.514Z,0.00
2018-07-20T06:28:45.495Z,0.00
2018-07-20T06:29:45.473Z,0.00
2018-07-20T06:30:45.446Z,0.00
2018-07-20T06:31:45.423Z,0.00
2018-07-20T06:32:45.402Z,0.00
2018-07-20T06:33:45.379Z,0.00
2018-07-20T06:34:45.356Z,0.00
2018-07-20T06:35:45.337Z,0.00
2018-07-20T06:36:45.312Z,0.00
2018-07-20T06:37:45.285Z,0.00
2018-07-20T06:38:45.265Z,0.00
2018-07-20T06:39:45.239Z,0.00
2018-07-20T06:40:45.236Z,0.00
2018-07-20T06:41:45.197Z,0.00
2018-07-20T06:42:45.161Z,0.00
2018-07-20T06:43:45.149Z,0.00
2018-07-20T06:44:45.131Z,0.00
2018-07-20T06:45:45.106Z,0.00
2018-07-20T06:46:45.088Z,0.00
2018-07-20T06:47:45.066Z,0.00
2018-07-20T06:48:45.018Z,0.00
2018-07-20T06:49:45.035Z,0.00
2018-07-20T06:50:44.996Z,0.00
2018-07-20T06:51:44.972Z,0.00
2018-07-20T06:52:44.947Z,0.00
2018-07-20T06:53:44.928Z,0.00
2018-07-20T06:54:44.905Z,0.00
2018-07-20T06:55:44.904Z,0.00
2018-07-20T06:56:44.836Z,0.00
2018-07-20T06:57:44.811Z,0.00
2018-07-20T06:58:44.809Z,0.00
2018-07-20T06:59:44.787Z,0.00
2018-07-20T07:00:44.772Z,0.00
2018-07-20T07:01:44.740Z,0.00
2018-07-20T07:02:44.717Z,0.00
2018-07-20T07:03:44.695Z,0.00
2018-07-20T07:04:44.672Z,0.00
2018-07-20T07:05:44.654Z,0.00
2018-07-20T07:06:44.626Z,0.00
2018-07-20T07:07:44.607Z,0.00
2018-07-20T07:08:44.577Z,0.00
2018-07-20T07:09:44.544Z,0.00
2018-07-20T07:10:44.533Z,0.00
2018-07-20T07:11:44.506Z,0.00
2018-07-20T07:12:44.486Z,0.00
2018-07-20T07:13:44.465Z,0.00
2018-07-20T07:14:44.453Z,0.00
2018-07-20T07:15:44.423Z,0.00
2018-07-20T07:16:44.384Z,0.00
2018-07-20T07:17:44.372Z,0.00
2018-07-20T07:18:44.333Z,0.00
2018-07-20T07:19:44.323Z,0.00
2018-07-20T07:20:44.304Z,0.00
2018-07-20T07:21:44.283Z,0.00
2018-07-20T07:22:44.261Z,0.00
2018-07-20T07:23:44.374Z,0.00
2018-07-20T07:24:44.215Z,0.00
2018-07-20T07:25:44.187Z,0.00
2018-07-20T07:26:44.162Z,0.00
2018-07-20T07:27:44.138Z,0.00
2018-07-20T07:28:44.119Z,0.00
2018-07-20T07:29:44.084Z,0.00
2018-07-20T07:30:44.069Z,0.00
2018-07-20T07:31:44.048Z,0.00
2018-07-20T07:32:44.007Z,0.00
2018-07-20T07:33:43.985Z,0.00
2018-07-20T07:34:43.980Z,0.00
2018-07-20T07:35:43.988Z,0.00
2018-07-20T07:36:43.921Z,0.00
2018-07-20T07:37:43.910Z,0.00
2018-07-20T07:38:43.865Z,0.00
2018-07-20T07:39:43.845Z,0.00
2018-07-20T07:40:43.840Z,0.00
2018-07-20T07:41:43.819Z,0.00
2018-07-20T07:42:43.804Z,0.00
2018-07-20T07:43:43.771Z,0.00
2018-07-20T07:44:43.729Z,0.00
2018-07-20T07:45:43.710Z,0.00
2018-07-20T07:46:43.700Z,0.00
2018-07-20T07:47:43.686Z,0.00
2018-07-20T07:48:43.663Z,0.00
2018-07-20T07:49:43.635Z,0.00
2018-07-20T07:50:43.669Z,0.00
2018-07-20T07:51:43.583Z,0.00
2018-07-20T07:52:43.573Z,0.00
2018-07-20T07:53:43.540Z,0.00
2018-07-20T07:54:43.549Z,0.00
2018-07-20T07:55:43.496Z,0.00
2018-07-20T07:56:43.473Z,0.00
2018-07-20T07:57:43.445Z,0.00
2018-07-20T07:58:43.424Z,0.00
2018-07-20T07:59:43.396Z,0.00
2018-07-20T08:00:43.376Z,0.00
2018-07-20T08:01:43.360Z,0.00
2018-07-20T08:02:43.341Z,0.00
2018-07-20T08:03:43.307Z,0.00
2018-07-20T08:04:43.285Z,0.00
2018-07-20T08:05:43.245Z,0.00
2018-07-20T08:06:43.238Z,0.00
2018-07-20T08:07:43.219Z,0.00
2018-07-20T08:08:43.195Z,0.00
2018-07-20T08:09:43.223Z,0.00
2018-07-20T08:10:43.146Z,0.00
2018-07-20T08:11:43.122Z,0.00
2018-07-20T08:12:43.085Z,0.00
2018-07-20T08:13:43.077Z,0.00
2018-07-20T08:14:43.059Z,0.00
2018-07-20T08:15:43.070Z,0.00
2018-07-20T08:16:43.010Z,0.00
2018-07-20T08:17:42.988Z,0.00
2018-07-20T08:18:42.964Z,0.00
2018-07-20T08:19:42.921Z,0.00
2018-07-20T08:20:42.895Z,0.00
2018-07-20T08:21:42.870Z,0.00
2018-07-20T08:22:42.873Z,0.00
2018-07-20T08:23:42.845Z,0.00
2018-07-20T08:24:42.825Z,0.00
2018-07-20T08:25:42.795Z,0.00
2018-07-20T08:26:42.775Z,0.00
2018-07-20T08:27:42.753Z,0.00
2018-07-20T08:28:42.730Z,0.00
2018-07-20T08:29:42.708Z,0.00
2018-07-20T08:30:42.677Z,0.00
2018-07-20T08:31:42.637Z,0.00
2018-07-20T08:32:42.633Z,0.00
2018-07-20T08:33:42.608Z,0.00
2018-07-20T08:34:42.586Z,0.00
2018-07-20T08:35:42.563Z,0.00
2018-07-20T08:36:42.549Z,0.00
2018-07-20T08:37:42.496Z,0.00
2018-07-20T08:38:42.492Z,0.00
2018-07-20T08:39:42.453Z,0.00
2018-07-20T08:40:42.454Z,0.00
2018-07-20T08:41:42.423Z,0.00
2018-07-20T08:42:42.399Z,0.00
2018-07-20T08:43:42.365Z,0.00
2018-07-20T08:44:42.357Z,0.00
2018-07-20T08:45:42.310Z,0.00
2018-07-20T08:46:42.302Z,0.00
2018-07-20T08:47:42.285Z,0.00
2018-07-20T08:50:25.965Z,0.00
2018-07-20T08:51:25.946Z,0.00
2018-07-20T08:52:25.899Z,0.00
2018-07-20T08:53:25.893Z,0.00
2018-07-20T08:54:25.874Z,0.00
2018-07-20T08:55:25.849Z,0.00
2018-07-20T08:56:25.824Z,0.00
2018-07-20T08:57:25.798Z,0.00
2018-07-20T08:58:25.760Z,0.00
2018-07-20T08:59:25.750Z,0.00
2018-07-20T09:00:25.737Z,0.00
2018-07-20T09:01:25.707Z,0.00
2018-07-20T09:02:25.684Z,0.00
2018-07-20T09:03:25.709Z,0.00
2018-07-20T09:04:25.637Z,0.00
2018-07-20T09:05:25.607Z,0.00
2018-07-20T09:06:25.582Z,0.00
2018-07-20T09:07:25.562Z,0.00
2018-07-20T09:08:25.543Z,0.00
2018-07-20T09:09:25.511Z,0.00
2018-07-20T09:10:25.491Z,0.00
2018-07-20T09:11:25.468Z,0.00
2018-07-20T09:12:25.425Z,0.00
2018-07-20T09:13:25.430Z,0.00
2018-07-20T09:14:25.402Z,0.00
2018-07-20T09:15:25.378Z,0.00
2018-07-20T09:16:25.328Z,0.00
2018-07-20T09:17:25.325Z,0.00
2018-07-20T09:18:25.285Z,0.00
2018-07-20T09:19:25.264Z,4.00
2018-07-20T09:20:25.260Z,0.00
2018-07-20T09:21:25.235Z,4.00
2018-07-20T09:22:25.208Z,0.00
2018-07-20T09:23:25.188Z,4.00
2018-07-20T09:24:25.166Z,8.00
2018-07-20T09:25:25.136Z,8.00
2018-07-20T09:26:25.109Z,8.00
2018-07-20T09:27:25.071Z,12.00
2018-07-20T09:28:25.135Z,16.00
2018-07-20T09:29:25.021Z,20.00
2018-07-20T09:30:25.026Z,28.00
2018-07-20T09:31:25.000Z,36.00
2018-07-20T09:32:24.950Z,44.00
2018-07-20T09:33:24.941Z,56.00
2018-07-20T09:34:24.903Z,72.00
2018-07-20T09:35:24.899Z,88.00
2018-07-20T09:36:24.860Z,112.00
2018-07-20T09:37:24.850Z,136.00
2018-07-20T09:38:24.826Z,168.00
2018-07-20T09:39:24.799Z,200.00
2018-07-20T09:40:24.778Z,240.00
2018-07-20T09:41:24.738Z,284.00
2018-07-20T09:42:24.728Z,332.00
2018-07-20T09:43:24.696Z,388.00
2018-07-20T09:44:24.744Z,448.00
2018-07-20T09:45:24.655Z,512.00
2018-07-20T09:46:24.634Z,580.00
2018-07-20T09:47:24.615Z,656.00
2018-07-20T09:48:24.589Z,736.00
2018-07-20T09:49:24.559Z,820.00
2018-07-20T09:50:24.540Z,912.00
2018-07-20T09:51:24.527Z,1004.00
2018-07-20T09:52:24.503Z,1108.00
2018-07-20T09:53:24.455Z,1212.00
2018-07-20T09:54:24.441Z,1320.00
2018-07-20T09:55:24.417Z,1440.00
2018-07-20T09:56:24.406Z,1560.00
2018-07-20T09:57:24.350Z,1688.00
2018-07-20T09:58:24.371Z,1816.00
2018-07-20T09:59:24.338Z,1944.00
2018-07-20T10:00:24.300Z,2076.00
2018-07-20T10:01:24.265Z,2208.00
2018-07-20T10:02:24.241Z,2352.00
2018-07-20T10:03:24.230Z,2492.00
2018-07-20T10:04:24.216Z,2640.00
2018-07-20T10:05:24.184Z,2796.00
2018-07-20T10:06:24.159Z,2948.00
2018-07-20T10:07:24.135Z,3096.00
2018-07-20T10:08:24.108Z,3244.00
2018-07-20T10:09:24.090Z,3396.00
2018-07-20T10:10:24.066Z,3544.00
2018-07-20T10:11:24.045Z,3704.00
2018-07-20T10:12:24.018Z,3884.00
2018-07-20T10:13:23.994Z,4192.00
2018-07-20T10:14:23.973Z,4508.00
2018-07-20T10:15:23.953Z,4688.00
2018-07-20T10:16:23.928Z,4740.00
2018-07-20T10:17:23.883Z,4752.00
2018-07-20T10:18:23.880Z,4864.00
2018-07-20T10:19:23.854Z,4996.00
2018-07-20T10:20:23.833Z,5152.00
2018-07-20T10:21:23.807Z,5324.00
2018-07-20T10:22:23.763Z,5464.00
2018-07-20T10:23:23.745Z,5712.00
2018-07-20T10:24:23.737Z,6096.00
2018-07-20T10:25:23.711Z,6412.00
2018-07-20T10:26:23.691Z,6652.00
2018-07-20T10:27:23.665Z,6916.00
2018-07-20T10:28:23.646Z,7132.00
2018-07-20T10:29:23.632Z,7388.00
2018-07-20T10:30:23.601Z,7740.00
2018-07-20T10:31:23.575Z,8056.00
2018-07-20T10:32:23.555Z,8400.00
2018-07-20T10:33:23.533Z,8760.00
2018-07-20T10:34:23.511Z,9104.00
2018-07-20T10:35:23.494Z,9488.00
2018-07-20T10:36:23.444Z,9928.00
2018-07-20T10:37:23.439Z,10232.00
2018-07-20T10:38:23.425Z,10480.00
2018-07-20T10:39:23.398Z,10768.00
2018-07-20T10:40:23.373Z,11044.00
2018-07-20T10:41:23.355Z,11516.00
2018-07-20T10:42:23.330Z,11780.00
2018-07-20T10:43:23.309Z,12456.00
2018-07-20T10:44:23.290Z,13256.00
2018-07-20T10:45:23.263Z,13572.00
2018-07-20T10:46:23.240Z,13644.00
2018-07-20T10:47:23.202Z,13732.00
2018-07-20T10:48:23.195Z,13892.00
2018-07-20T10:49:23.168Z,14272.00
2018-07-20T10:50:23.144Z,15136.00
2018-07-20T10:51:23.127Z,15648.00
2018-07-20T10:52:23.105Z,16480.00
2018-07-20T10:53:23.083Z,16640.00
2018-07-20T10:54:23.068Z,16576.00
2018-07-20T10:55:23.040Z,16960.00
2018-07-20T10:56:23.022Z,17248.00
2018-07-20T10:57:22.997Z,17600.00
2018-07-20T10:58:22.952Z,17472.00
2018-07-20T10:59:22.952Z,17152.00
2018-07-20T11:00:22.919Z,17440.00
2018-07-20T11:01:22.919Z,17536.00
2018-07-20T11:02:22.867Z,17120.00
2018-07-20T11:03:22.848Z,17440.00
2018-07-20T11:04:22.826Z,17920.00
2018-07-20T11:05:22.820Z,18528.00
2018-07-20T11:06:22.802Z,18496.00
2018-07-20T11:07:22.780Z,19392.00
2018-07-20T11:08:22.758Z,20288.00
2018-07-20T11:09:22.739Z,20800.00
2018-07-20T11:10:22.725Z,21600.00
2018-07-20T11:11:22.692Z,21408.00
2018-07-20T11:12:22.658Z,21600.00
2018-07-20T11:13:22.650Z,22144.00
2018-07-20T11:14:22.620Z,21792.00
2018-07-20T11:15:22.611Z,22272.00
2018-07-20T11:16:22.596Z,23680.00
2018-07-20T11:17:22.574Z,25472.00
2018-07-20T11:18:22.551Z,26272.00
2018-07-20T11:19:22.533Z,27936.00
2018-07-20T11:20:22.537Z,29664.00
2018-07-20T11:21:22.493Z,32320.00
2018-07-20T11:22:22.469Z,34880.00
2018-07-20T11:23:22.450Z,33760.00
2018-07-20T11:24:22.430Z,30208.00
2018-07-20T11:25:22.406Z,26688.00
2018-07-20T11:26:22.393Z,22176.00
2018-07-20T11:27:22.363Z,19904.00
2018-07-20T11:28:22.346Z,20224.00
2018-07-20T11:29:22.346Z,20096.00
2018-07-20T11:30:22.301Z,18784.00
2018-07-20T11:31:22.289Z,17404.00
2018-07-20T11:32:22.270Z,17092.00
2018-07-20T11:33:22.241Z,17984.00
2018-07-20T11:34:22.223Z,18464.00
2018-07-20T11:35:22.205Z,18752.00
2018-07-20T11:36:22.185Z,19264.00
2018-07-20T11:37:22.164Z,19072.00
2018-07-20T11:38:22.143Z,19040.00
2018-07-20T11:39:22.125Z,19232.00
2018-07-20T11:40:22.103Z,19456.00
2018-07-20T11:41:22.067Z,19584.00
2018-07-20T11:42:22.049Z,19744.00
2018-07-20T11:43:22.023Z,20320.00
2018-07-20T11:44:22.008Z,20768.00
2018-07-20T11:45:22.007Z,21056.00
2018-07-20T11:46:21.964Z,20960.00
2018-07-20T11:47:21.967Z,21440.00
2018-07-20T11:48:21.932Z,22400.00
2018-07-20T11:49:21.910Z,23168.00
2018-07-20T11:50:21.888Z,24352.00
2018-07-20T11:51:21.889Z,25952.00
2018-07-20T11:52:21.865Z,28192.00
2018-07-20T11:53:21.828Z,33088.00
2018-07-20T11:54:21.824Z,34944.00
2018-07-20T11:55:21.811Z,35648.00
2018-07-20T11:56:21.790Z,36320.00
2018-07-20T11:57:21.773Z,36672.00
2018-07-20T11:58:21.746Z,36384.00
2018-07-20T11:59:54.944Z,37632.00
2018-07-20T12:00:21.745Z,37984.00
2018-07-20T12:01:21.699Z,39488.00
2018-07-20T12:02:21.675Z,40160.00
2018-07-20T12:03:21.642Z,39776.00
2018-07-20T12:04:21.617Z,40224.00
2018-07-20T12:05:21.618Z,41376.00
2018-07-20T12:06:21.603Z,39328.00
2018-07-20T12:07:21.579Z,41408.00
2018-07-20T12:08:21.556Z,42784.00
2018-07-20T12:09:21.603Z,44256.00
2018-07-20T12:10:21.588Z,44672.00
2018-07-20T12:11:21.559Z,45920.00
2018-07-20T12:12:21.549Z,44288.00
2018-07-20T12:13:21.461Z,43264.00
2018-07-20T12:14:21.449Z,43808.00
2018-07-20T12:15:21.409Z,44672.00
2018-07-20T12:16:21.389Z,46976.00
2018-07-20T12:17:21.387Z,48352.00
2018-07-20T12:18:21.375Z,48256.00
2018-07-20T12:19:21.339Z,49056.00
2018-07-20T12:20:21.334Z,52320.00
2018-07-20T12:21:21.323Z,53440.00
2018-07-20T12:22:21.306Z,51584.00
2018-07-20T12:23:21.280Z,50400.00
2018-07-20T12:24:21.266Z,49792.00
2018-07-20T12:25:21.257Z,45504.00
2018-07-20T12:26:21.226Z,44160.00
2018-07-20T12:27:21.209Z,48512.00
2018-07-20T12:28:21.182Z,50944.00
2018-07-20T12:29:21.173Z,53088.00
2018-07-20T12:30:21.156Z,19456.00
2018-07-20T12:31:21.144Z,48608.00
2018-07-20T12:32:21.139Z,40928.00
2018-07-20T12:33:21.112Z,40480.00
2018-07-20T12:34:21.095Z,41376.00
2018-07-20T12:35:21.078Z,42272.00
2018-07-20T12:36:21.063Z,45952.00
2018-07-20T12:37:21.049Z,47936.00
2018-07-20T12:38:21.029Z,48960.00
2018-07-20T12:39:20.994Z,48960.00
2018-07-20T12:40:20.988Z,45536.00
2018-07-20T12:41:20.978Z,46464.00
2018-07-20T12:42:21.157Z,63488.00
2018-07-20T12:43:20.918Z,56384.00
2018-07-20T12:44:20.925Z,27136.00
2018-07-20T12:45:20.911Z,31712.00
2018-07-20T12:46:20.895Z,40704.00
2018-07-20T12:47:20.880Z,38912.00
2018-07-20T12:48:20.862Z,57248.00
2018-07-20T12:49:20.844Z,56960.00
2018-07-20T12:50:20.920Z,59392.00
2018-07-20T12:51:20.817Z,60416.00
2018-07-20T12:52:20.796Z,64864.00
2018-07-20T12:53:20.775Z,66240.00
2018-07-20T12:54:20.748Z,65536.00
2018-07-20T12:55:20.747Z,64544.00